KNRB/NRB METAR and TAF weather

Enter ICAO airport designator
Station Type Date Time Source
KNRB METAR 2020/04/04 03:52 UTC NOAA

KNRB 040352Z AUTO 00000KT 10SM CLR 17/12 A2996 RMK AO2 SLP143 T01720122


Station Type Date Time Source
KNRB Decoded METAR 2020/04/04 03:52 UTC NOAA

MAYPORT NAVAL AIR FACILITY, FL, United States (KNRB) 30-24N 81-25W 4M
Apr 03, 2020 - 11:52 PM EDT / 2020.04.04 0352 UTC
Wind: Calm:0
Visibility: 10 mile(s):0
Sky conditions: clear
Temperature: 63.0 F (17.2 C)
Dew Point: 54.0 F (12.2 C)
Relative Humidity: 72%
Pressure (altimeter): 29.96 in. Hg (1014 hPa)
ob: KNRB 040352Z AUTO 00000KT 10SM CLR 17/12 A2996 RMK AO2 SLP143 T01720122
cycle: 4

Station Type Date Time Source
KNRB TAF 2020/04/03 23:51 UTC NOAA

TAF KNRB 0323/0423 14008KT 9999 BKN250 QNH2994INS
FM040300 VRB05KT 9999 BKN250 QNH2996INS
FM041700 09010KT 9999 FEW030 BKN250 QNH2990INS AUTOMATED SENSOR METWATCH 0323 TIL 0609 T18/0412Z T24/0420Z FN20021

Example: see airport list